createdAt,value
2023-01-11T00:02:18.020Z,8.96
2023-01-11T00:06:17.978Z,8.91
2023-01-11T00:10:18.885Z,8.90
2023-01-11T00:14:17.951Z,8.87
2023-01-11T00:18:18.362Z,8.85
2023-01-11T00:22:19.157Z,8.81
2023-01-11T00:26:18.119Z,8.79
2023-01-11T00:30:18.255Z,8.74
2023-01-11T00:34:18.823Z,8.72
2023-01-11T00:38:27.828Z,8.69
2023-01-11T00:42:27.897Z,8.65
2023-01-11T00:46:27.922Z,8.60
2023-01-11T00:50:18.445Z,8.58
2023-01-11T00:54:18.100Z,8.54
2023-01-11T00:58:18.070Z,8.50
2023-01-11T01:02:18.086Z,8.46
2023-01-11T01:06:18.588Z,8.44
2023-01-11T01:10:18.731Z,8.42
2023-01-11T01:14:27.401Z,8.41
2023-01-11T01:18:18.148Z,8.36
2023-01-11T01:22:18.261Z,8.34
2023-01-11T01:26:18.168Z,8.33
2023-01-11T01:30:18.526Z,8.28
2023-01-11T01:34:18.121Z,8.26
2023-01-11T01:38:18.432Z,8.23
2023-01-11T01:42:20.668Z,8.20
2023-01-11T01:46:20.303Z,8.19
2023-01-11T01:50:21.113Z,8.17
2023-01-11T01:54:23.463Z,8.15
2023-01-11T01:58:22.495Z,8.13
2023-01-11T02:06:20.635Z,8.10
2023-01-11T02:10:20.175Z,8.08
2023-01-11T02:14:19.702Z,8.06
2023-01-11T02:18:19.600Z,8.04
2023-01-11T02:22:38.044Z,8.02
2023-01-11T02:26:38.108Z,7.99
2023-01-11T02:30:25.912Z,7.98
2023-01-11T02:34:28.178Z,7.95
2023-01-11T02:38:27.231Z,7.92
2023-01-11T02:42:35.624Z,7.90
2023-01-11T02:46:28.859Z,7.85
2023-01-11T02:50:28.839Z,7.82
2023-01-11T02:54:21.068Z,7.80
2023-01-11T02:58:22.206Z,7.79
2023-01-11T03:02:18.423Z,7.75
2023-01-11T03:06:21.524Z,7.74
2023-01-11T03:10:29.989Z,7.70
2023-01-11T03:14:26.779Z,7.67
2023-01-11T03:18:27.393Z,7.64
2023-01-11T03:22:27.071Z,7.60
2023-01-11T03:26:29.924Z,7.57
2023-01-11T03:30:26.449Z,7.55
2023-01-11T03:34:29.144Z,7.53
2023-01-11T03:38:22.823Z,7.50
2023-01-11T03:42:22.169Z,7.49
2023-01-11T03:46:23.051Z,7.48
2023-01-11T03:50:19.269Z,7.46
2023-01-11T03:54:22.787Z,7.44
2023-01-11T04:02:21.354Z,7.40
2023-01-11T04:06:18.954Z,7.37
2023-01-11T04:10:18.954Z,7.35
2023-01-11T04:14:18.500Z,7.32
2023-01-11T04:18:18.532Z,7.27
2023-01-11T04:22:18.668Z,7.23
2023-01-11T04:26:18.663Z,7.18
2023-01-11T04:30:18.925Z,7.16
2023-01-11T04:42:19.001Z,7.12
2023-01-11T04:46:18.643Z,7.09
2023-01-11T04:50:18.835Z,7.07
2023-01-11T04:54:18.635Z,7.06
2023-01-11T04:58:18.800Z,7.03
2023-01-11T05:02:18.767Z,7.04
2023-01-11T05:06:18.846Z,7.07
2023-01-11T05:10:20.869Z,7.06
2023-01-11T05:14:18.835Z,7.01
2023-01-11T05:18:18.742Z,7.00
2023-01-11T05:22:18.760Z,6.97
2023-01-11T05:26:22.123Z,6.95
2023-01-11T05:30:18.911Z,6.93
2023-01-11T05:34:18.774Z,6.90
2023-01-11T05:38:18.989Z,6.88
2023-01-11T05:42:18.799Z,6.84
2023-01-11T05:46:19.308Z,6.83
2023-01-11T05:50:19.005Z,6.81
2023-01-11T05:54:19.086Z,6.80
2023-01-11T05:58:18.790Z,6.76
2023-01-11T06:02:19.151Z,6.70
2023-01-11T06:06:19.769Z,6.64
2023-01-11T06:10:19.065Z,6.59
2023-01-11T06:14:18.831Z,6.52
2023-01-11T06:18:19.102Z,6.48
2023-01-11T06:22:18.886Z,6.47
2023-01-11T06:26:20.827Z,6.42
2023-01-11T06:30:19.620Z,6.38
2023-01-11T06:34:19.136Z,6.36
2023-01-11T06:38:20.621Z,6.32
2023-01-11T06:42:19.043Z,6.28
2023-01-11T06:46:19.725Z,6.25
2023-01-11T06:50:19.225Z,6.20
2023-01-11T06:54:22.035Z,6.17
2023-01-11T07:02:19.149Z,6.15
2023-01-11T07:06:19.023Z,6.16
2023-01-11T07:10:19.302Z,6.15
2023-01-11T07:14:20.060Z,6.14
2023-01-11T07:18:19.764Z,6.17
2023-01-11T07:22:21.418Z,6.19
2023-01-11T07:38:19.374Z,6.20
2023-01-11T07:42:29.098Z,6.21
2023-01-11T07:46:19.620Z,6.20
2023-01-11T07:50:19.057Z,6.18
2023-01-11T07:54:19.625Z,6.17
2023-01-11T07:58:19.137Z,6.13
2023-01-11T08:02:19.400Z,6.10
2023-01-11T08:06:19.140Z,6.07
2023-01-11T08:10:19.451Z,6.06
2023-01-11T08:14:29.113Z,6.02
2023-01-11T08:22:19.372Z,5.98
2023-01-11T08:26:19.218Z,5.95
2023-01-11T08:30:19.396Z,5.94
2023-01-11T08:34:19.197Z,5.93
2023-01-11T08:38:19.386Z,5.91
2023-01-11T08:42:19.473Z,5.89
2023-01-11T08:46:19.711Z,5.85
2023-01-11T08:50:21.447Z,5.78
2023-01-11T08:54:19.511Z,5.71
2023-01-11T08:58:21.480Z,5.68
2023-01-11T09:02:19.648Z,5.63
2023-01-11T09:06:19.513Z,5.60
2023-01-11T09:10:19.729Z,5.61
2023-01-11T09:14:19.712Z,5.58
2023-01-11T09:18:19.672Z,5.56
2023-01-11T09:22:19.333Z,5.58
2023-01-11T09:26:19.590Z,5.59
2023-01-11T09:30:21.761Z,5.74
2023-01-11T09:34:20.086Z,5.93
2023-01-11T09:38:19.408Z,6.09
2023-01-11T09:42:31.632Z,6.22
2023-01-11T09:46:19.870Z,6.26
2023-01-11T09:50:22.879Z,6.29
2023-01-11T09:54:25.751Z,6.36
2023-01-11T09:58:35.095Z,6.41
2023-01-11T10:02:32.400Z,6.44
2023-01-11T10:18:26.736Z,6.62
2023-01-11T10:18:45.546Z,6.68
2023-01-11T10:22:23.663Z,6.74
2023-01-11T10:26:26.803Z,6.82
2023-01-11T10:30:33.048Z,6.89
2023-01-11T10:34:29.999Z,6.88
2023-01-11T10:38:36.531Z,6.85
2023-01-11T10:46:25.477Z,6.86
2023-01-11T10:50:25.453Z,6.89
2023-01-11T10:54:26.635Z,6.93
2023-01-11T10:58:29.214Z,6.97
2023-01-11T11:02:34.146Z,7.03
2023-01-11T11:06:31.763Z,7.09
2023-01-11T11:10:24.584Z,7.14
2023-01-11T11:14:27.025Z,7.18
2023-01-11T11:18:19.833Z,7.23
2023-01-11T11:22:20.069Z,7.25
2023-01-11T11:26:21.903Z,7.27
2023-01-11T11:30:30.506Z,7.34
2023-01-11T11:34:21.405Z,7.41
2023-01-11T11:42:21.014Z,7.43
2023-01-11T11:46:25.184Z,7.44
2023-01-11T11:50:43.258Z,7.43
2023-01-11T11:54:25.009Z,7.44
2023-01-11T11:58:23.447Z,7.46
2023-01-11T12:02:24.681Z,7.47
2023-01-11T12:10:22.844Z,7.50
2023-01-11T12:14:24.577Z,7.56
2023-01-11T12:18:24.183Z,7.58
2023-01-11T12:22:22.071Z,7.63
2023-01-11T12:26:23.880Z,7.68
2023-01-11T12:30:24.560Z,7.73
2023-01-11T12:34:36.352Z,7.75
2023-01-11T12:38:29.199Z,7.77
2023-01-11T12:42:37.820Z,7.80
2023-01-11T12:46:27.389Z,7.81
2023-01-11T12:50:24.007Z,7.82
2023-01-11T12:54:37.652Z,7.83
2023-01-11T12:58:27.839Z,7.85
2023-01-11T13:02:36.494Z,7.87
2023-01-11T13:06:24.769Z,7.88
2023-01-11T13:10:32.228Z,7.90
2023-01-11T13:14:33.282Z,7.92
2023-01-11T13:22:27.496Z,7.91
2023-01-11T13:26:24.064Z,7.90
2023-01-11T13:30:23.412Z,7.91
2023-01-11T13:34:24.586Z,7.90
2023-01-11T13:42:24.104Z,7.89
2023-01-11T13:54:26.024Z,7.88
2023-01-11T13:58:27.948Z,7.87
2023-01-11T14:10:31.812Z,7.86
2023-01-11T14:14:32.112Z,7.85
2023-01-11T14:18:30.851Z,7.84
2023-01-11T14:26:38.432Z,7.78
2023-01-11T14:30:36.522Z,7.70
2023-01-11T14:34:40.023Z,7.58
2023-01-11T14:38:39.951Z,7.48
2023-01-11T14:42:38.491Z,7.39
2023-01-11T14:46:40.201Z,7.32
2023-01-11T14:50:31.924Z,7.24
2023-01-11T14:54:25.111Z,7.18
2023-01-11T14:58:25.668Z,7.08
2023-01-11T15:02:26.178Z,6.99
2023-01-11T15:06:21.788Z,6.88
2023-01-11T15:10:39.125Z,6.80
2023-01-11T15:14:27.806Z,6.70
2023-01-11T15:18:22.831Z,6.49
2023-01-11T15:22:27.089Z,6.34
2023-01-11T15:26:22.716Z,6.27
2023-01-11T15:30:37.999Z,6.21
2023-01-11T15:34:23.893Z,6.13
2023-01-11T15:38:22.901Z,6.11
2023-01-11T15:42:40.160Z,6.10
2023-01-11T15:46:50.167Z,6.11
2023-01-11T15:50:40.173Z,6.14
2023-01-11T15:54:40.917Z,6.11
2023-01-11T15:58:39.343Z,6.09
2023-01-11T16:02:40.201Z,6.12
2023-01-11T16:06:31.314Z,6.25
2023-01-11T16:10:40.224Z,6.30
2023-01-11T16:14:39.800Z,6.34
2023-01-11T16:18:24.362Z,6.38
2023-01-11T16:22:24.719Z,6.43
2023-01-11T16:26:21.186Z,6.42
2023-01-11T16:34:20.667Z,6.43
2023-01-11T16:38:22.674Z,6.44
2023-01-11T16:46:40.517Z,6.42
2023-01-11T16:54:25.469Z,6.39
2023-01-11T17:02:27.443Z,6.40
2023-01-11T17:06:22.315Z,6.42
2023-01-11T17:10:24.482Z,6.44
2023-01-11T17:14:39.191Z,6.46
2023-01-11T17:18:21.046Z,6.45
2023-01-11T17:22:25.052Z,6.46
2023-01-11T17:26:23.584Z,6.48
2023-01-11T17:30:23.932Z,6.50
2023-01-11T17:34:29.289Z,6.53
2023-01-11T17:38:23.236Z,6.54
2023-01-11T17:42:31.776Z,6.57
2023-01-11T17:50:23.872Z,6.59
2023-01-11T17:58:25.434Z,6.61
2023-01-11T18:02:20.776Z,6.65
2023-01-11T18:06:26.100Z,6.70
2023-01-11T18:10:23.062Z,6.73
2023-01-11T18:14:23.838Z,6.74
2023-01-11T18:18:40.683Z,6.70
2023-01-11T18:22:28.067Z,6.68
2023-01-11T18:26:25.704Z,6.69
2023-01-11T18:30:39.046Z,6.73
2023-01-11T18:34:20.798Z,6.76
2023-01-11T18:38:23.525Z,6.80
2023-01-11T18:42:27.798Z,6.83
2023-01-11T18:50:21.128Z,6.80
2023-01-11T18:54:21.009Z,6.78
2023-01-11T18:58:21.862Z,6.74
2023-01-11T19:02:24.101Z,6.72
2023-01-11T19:06:21.782Z,6.73
2023-01-11T19:10:22.474Z,6.74
2023-01-11T19:14:21.019Z,6.76
2023-01-11T19:20:37.127Z,6.76
2023-01-11T19:22:23.439Z,6.79
2023-01-11T19:26:21.020Z,6.84
2023-01-11T19:30:21.008Z,6.86
2023-01-11T19:34:21.621Z,6.89
2023-01-11T19:38:21.051Z,6.91
2023-01-11T19:42:22.847Z,6.92
2023-01-11T19:46:31.146Z,6.95
2023-01-11T19:50:21.227Z,6.99
2023-01-11T19:54:24.004Z,7.01
2023-01-11T19:58:21.426Z,7.04
2023-01-11T20:02:21.331Z,7.07
2023-01-11T20:06:21.302Z,7.12
2023-01-11T20:10:21.719Z,7.14
2023-01-11T20:14:21.393Z,7.17
2023-01-11T20:18:21.148Z,7.19
2023-01-11T20:22:22.168Z,7.21
2023-01-11T20:26:21.194Z,7.23
2023-01-11T20:34:21.519Z,7.24
2023-01-11T20:42:21.417Z,7.21
2023-01-11T20:46:21.303Z,7.20
2023-01-11T20:50:21.290Z,7.19
2023-01-11T20:54:21.648Z,7.17
2023-01-11T20:58:21.535Z,7.16
2023-01-11T21:06:21.410Z,7.15
2023-01-11T21:10:21.482Z,7.14
2023-01-11T21:18:21.528Z,7.15
2023-01-11T21:22:21.276Z,7.14
2023-01-11T21:30:22.368Z,7.15
2023-01-11T21:38:21.430Z,7.14
2023-01-11T21:50:21.388Z,7.15
2023-01-11T21:54:21.468Z,7.18
2023-01-11T21:58:21.715Z,7.23
2023-01-11T22:02:21.378Z,7.28
2023-01-11T22:06:22.025Z,7.34
2023-01-11T22:10:22.283Z,7.37
2023-01-11T22:14:22.006Z,7.41
2023-01-11T22:18:21.472Z,7.42
2023-01-11T22:22:21.732Z,7.44
2023-01-11T22:34:22.562Z,7.43
2023-01-11T22:46:23.613Z,7.44
2023-01-11T22:50:21.510Z,7.46
2023-01-11T22:54:22.035Z,7.47
2023-01-11T23:02:21.699Z,7.50
2023-01-11T23:06:23.335Z,7.52
2023-01-11T23:10:21.849Z,7.53
2023-01-11T23:14:25.669Z,7.54
2023-01-11T23:22:21.805Z,7.57
2023-01-11T23:34:21.762Z,7.59
2023-01-11T23:38:21.912Z,7.58
2023-01-11T23:46:32.523Z,7.59
2023-01-11T23:50:21.683Z,7.58
2023-01-11T23:54:24.989Z,7.60
2023-01-11T23:58:21.756Z,7.61
